Data for 11/23/2006

Time Sea-Level Adjusted Pressure Absolute Pressure Temperature Relative Humidity Dew Point   
(mb) (inHg) (mb) (inHg) (C) (F) (%) (C) (F)
00:05 1011 29.85 840 24.81 7.8 46.1 30 -8.7 16.4
00:10 1011 29.85 840 24.81 8.1 46.5 28 -9.2 15.4
00:15 1011 29.85 840 24.81 9.1 48.3 27 -8.7 16.3
00:20 1011 29.85 840 24.81 9.9 49.8 26 -8.9 16
00:25 1011 29.85 840 24.81 10.2 50.3 26 -8.5 16.6
00:30 1011 29.85 840 24.81 10.2 50.4 27 -8.2 17.3
00:35 1011 29.85 840 24.81 10.1 50.1 26 -8.8 16.1
00:40 1011 29.85 840 24.81 10.5 50.9 26 -8 17.6
00:45 1011 29.85 840 24.81 10.2 50.3 27 -7.8 17.9
00:50 1011 29.85 840 24.81 9.3 48.8 30 -7.4 18.7
00:55 1011 29.85 840 24.81 9 48.1 31 -7.3 18.8
01:00 1011 29.85 840 24.81 8.5 47.3 32 -7.2 19.1
01:05 1011 29.85 840 24.81 8.3 46.9 32 -7.3 18.8
01:10 1010 29.83 840 24.81 8.6 47.4 32 -7.2 19
01:15 1010 29.83 840 24.81 8.7 47.7 31 -7.6 18.2
01:20 1010 29.83 840 24.81 8.7 47.6 32 -7 19.3
01:25 1010 29.83 839 24.78 7.7 45.8 33 -7.6 18.4
01:30 1010 29.83 839 24.78 7 44.6 34 -7.9 17.8
01:35 1010 29.83 839 24.78 6.8 44.3 34 -8 17.6
01:40 1010 29.83 839 24.78 6.9 44.4 34 -7.9 17.7
01:45 1010 29.83 839 24.78 6.7 44.1 35 -7.6 18.2
01:50 1010 29.83 839 24.78 6.5 43.8 37 -7.2 19
01:55 1010 29.83 839 24.78 6.5 43.7 36 -7.7 18.2
02:00 1010 29.83 839 24.78 6.6 43.9 35 -7.9 17.7
02:05 1010 29.83 839 24.78 6.3 43.4 39 -6.6 20.1
02:10 1009 29.8 839 24.78 5.9 42.5 41 -6.5 20.3
02:15 1009 29.8 839 24.78 5.8 42.4 40 -6.8 19.7
02:20 1009 29.8 839 24.78 5.9 42.7 39 -6.9 19.5
02:25 1009 29.8 839 24.78 5.8 42.4 41 -6.5 20.3
02:30 1009 29.8 838 24.75 5.6 42.1 41 -6.5 20.3
02:35 1009 29.8 838 24.75 5.6 42.1 40 -6.8 19.8
02:40 1009 29.8 838 24.75 5.8 42.5 41 -6.3 20.6
02:45 1009 29.8 838 24.75 5.9 42.7 40 -6.5 20.2
02:50 1009 29.8 838 24.75 5.9 42.6 41 -6.5 20.4
02:55 1009 29.8 838 24.75 6 42.8 40 -6.5 20.4
03:00 1009 29.8 838 24.75 6.2 43.1 40 -6.4 20.4
03:05 1009 29.8 838 24.75 6.2 43.2 34 -8.4 16.9
03:10 1009 29.8 838 24.75 7.4 45.4 30 -9.1 15.7
03:15 1009 29.8 838 24.75 8.3 46.9 29 -8.9 15.9
03:20 1009 29.8 838 24.75 8.5 47.2 29 -8.7 16.4
03:25 1008 29.77 838 24.75 8.3 46.9 29 -8.9 16
03:30 1008 29.77 838 24.75 8.3 46.9 31 -8 17.6
03:35 1008 29.77 837 24.72 8.1 46.7 29 -9.1 15.7
03:40 1008 29.77 837 24.72 8.4 47.1 28 -9.1 15.6
03:45 1008 29.77 837 24.72 8.9 48 25 -10.1 13.8
03:50 1008 29.77 837 24.72 9.6 49.3 25 -9.6 14.6
03:55 1008 29.77 837 24.72 10 49.9 24 -9.5 15
04:00 1008 29.77 837 24.72 10 50 25 -9.2 15.5
04:05 1008 29.77 837 24.72 10 50 24 -9.6 14.8
04:10 1008 29.77 837 24.72 10.1 50.1 24 -9.4 15
04:15 1008 29.77 837 24.72 10 49.9 24 -9.6 14.8
04:20 1008 29.77 837 24.72 9.7 49.4 26 -9.1 15.6
04:25 1008 29.77 837 24.72 9.6 49.2 26 -9.2 15.5
04:30 1008 29.77 837 24.72 9.2 48.6 27 -9 15.8
04:35 1007 29.74 837 24.72 8.9 48.1 27 -9.1 15.6
04:40 1007 29.74 837 24.72 9.5 49.1 27 -8.5 16.7
04:45 1007 29.74 837 24.72 10.1 50.1 28 -7.8 17.9
04:50 1007 29.74 837 24.72 9.5 49.1 29 -7.9 17.9
04:55 1007 29.74 837 24.72 9 48.2 31 -7.4 18.6
05:00 1007 29.74 837 24.72 8.4 47.2 32 -7.5 18.5
05:05 1007 29.74 837 24.72 8.3 46.9 31 -7.7 18.1
05:10 1007 29.74 837 24.72 8.1 46.5 33 -7.4 18.7
05:15 1007 29.74 837 24.72 7.9 46.1 33 -7.5 18.4
05:20 1007 29.74 836 24.69 8.1 46.5 32 -7.8 17.9
05:25 1007 29.74 836 24.69 8.1 46.6 31 -7.9 17.7
05:30 1007 29.74 836 24.69 8.2 46.8 32 -7.7 18.2
05:35 1007 29.74 836 24.69 7.9 46.2 32 -7.6 18.3
05:40 1007 29.74 836 24.69 8.7 47.6 29 -8.6 16.6
05:45 1007 29.74 836 24.69 9.1 48.3 28 -8.3 17
05:50 1007 29.74 836 24.69 9.3 48.8 27 -8.6 16.6
05:55 1007 29.74 836 24.69 9.5 49.1 27 -8.6 16.6
06:00 1007 29.74 836 24.69 9.7 49.5 27 -8.3 17.1
06:05 1007 29.74 837 24.72 9.2 48.5 29 -8 17.5
06:10 1007 29.74 837 24.72 8.6 47.6 29 -8.2 17.2
06:15 1007 29.74 837 24.72 8.5 47.3 30 -8.2 17.2
06:20 1007 29.74 837 24.72 8.1 46.6 31 -8.2 17.3
06:25 1007 29.74 837 24.72 8.1 46.6 30 -8.4 16.8
06:30 1007 29.74 837 24.72 8.1 46.6 30 -8.2 17.2
06:35 1007 29.74 837 24.72 7.9 46.2 30 -8.5 16.7
06:40 1007 29.74 837 24.72 7.7 45.8 28 -9.7 14.6
06:45 1007 29.74 837 24.72 7.8 46 26 -10.4 13.4
06:50 1007 29.74 837 24.72 7.8 46 26 -10.4 13.2
06:55 1007 29.74 837 24.72 8 46.3 23 -11.8 10.8
07:00 1007 29.74 837 24.72 8.3 47 23 -11.6 11.1
07:05 1007 29.74 837 24.72 8.2 46.7 23 -11.5 11.3
07:10 1007 29.74 837 24.72 8.2 46.8 23 -11.6 11.2
07:15 1007 29.74 837 24.72 8.1 46.6 23 -11.6 11.2
07:20 1007 29.74 837 24.72 8 46.5 24 -11.6 11.2
07:25 1007 29.74 837 24.72 7.7 45.8 25 -11.2 11.9
07:30 1007 29.74 837 24.72 7.8 46.1 23 -12.2 10
07:35 1007 29.74 837 24.72 8.1 46.6 23 -11.6 11
07:40 1007 29.74 836 24.69 8.3 46.9 22 -12.5 9.5
07:45 1007 29.74 837 24.72 8.4 47.2 23 -11.7 10.9
07:50 1007 29.74 837 24.72 7.9 46.1 24 -11.3 11.6
07:55 1007 29.74 836 24.69 7.9 46.2 22 -12.5 9.4
08:00 1007 29.74 837 24.72 7.8 46 24 -11.8 10.8
08:05 1007 29.74 837 24.72 7.6 45.6 23 -12.3 9.9
08:10 1007 29.74 837 24.72 7.8 46 23 -12.4 9.7
08:15 1007 29.74 837 24.72 7.9 46.2 22 -12.7 9.1
08:20 1007 29.74 837 24.72 8.4 47.1 22 -12.3 9.8
08:25 1008 29.77 837 24.72 8.6 47.4 23 -11.4 11.5
08:30 1008 29.77 838 24.75 7.6 45.7 37 -6.1 21.1
08:35 1009 29.8 838 24.75 5.1 41.1 48 -5.1 22.9
08:40 1009 29.8 838 24.75 3.5 38.4 53 -5.2 22.7
08:45 1009 29.8 839 24.78 2.9 37.3 55 -5.1 22.8
08:50 1010 29.83 839 24.78 2.6 36.7 57 -5 23
08:55 1010 29.83 839 24.78 2.4 36.4 58 -5 23
09:00 1010 29.83 840 24.81 2.3 36.2 59 -5 23
09:05 1011 29.85 840 24.81 2.3 36.2 59 -4.9 23.2
09:10 1011 29.85 840 24.81 2.3 36.1 60 -4.8 23.4
09:15 1011 29.85 841 24.83 2.2 36 61 -4.6 23.8
09:20 1012 29.88 841 24.83 2.1 35.8 62 -4.4 24.2
09:25 1012 29.88 841 24.83 1.8 35.3 68 -3.6 25.6
09:30 1012 29.88 841 24.83 1.3 34.3 72 -3.3 26
09:35 1012 29.88 841 24.83 1 33.8 73 -3.2 26.2
09:40 1012 29.88 842 24.86 0.8 33.5 77 -2.7 27.1
09:45 1013 29.91 842 24.86 0.7 33.2 79 -2.5 27.5
09:50 1013 29.91 842 24.86 0.4 32.8 84 -2 28.4
09:55 1013 29.91 842 24.86 0.2 32.4 88 -1.5 29.3
10:00 1013 29.91 842 24.86 -0.1 31.7 91 -1.4 29.4
10:05 1013 29.91 842 24.86 -0.3 31.4 93 -1.4 29.5
10:10 1013 29.91 842 24.86 -0.4 31.3 94 -1.3 29.7
10:15 1013 29.91 842 24.86 -0.4 31.3 95 -1.2 29.9
10:20 1013 29.91 842 24.86 -0.3 31.5 95 -1.1 30.1
10:25 1013 29.91 842 24.86 -0.2 31.6 94 -1.1 30.1
10:30 1013 29.91 843 24.89 -0.2 31.6 94 -1.1 30
10:35 1013 29.91 843 24.89 -0.3 31.5 93 -1.2 29.8
10:40 1013 29.91 843 24.89 -0.4 31.3 94 -1.2 29.8
10:45 1014 29.94 843 24.89 -0.4 31.3 95 -1.1 30
10:50 1014 29.94 843 24.89 -0.4 31.4 95 -1.1 30
10:55 1014 29.94 843 24.89 -0.4 31.2 95 -1.1 30.1
11:00 1014 29.94 843 24.89 -0.4 31.4 96 -1 30.2
11:05 1014 29.94 843 24.89 -0.2 31.6 95 -0.9 30.5
11:10 1014 29.94 843 24.89 -0.2 31.7 96 -0.8 30.5
11:15 1014 29.94 843 24.89 -0.3 31.5 95 -0.9 30.3
11:20 1014 29.94 843 24.89 -0.3 31.5 96 -0.9 30.4
11:25 1014 29.94 843 24.89 -0.1 31.9 96 -0.7 30.7
11:30 1014 29.94 843 24.89 0.1 32.1 95 -0.6 30.9
11:35 1014 29.94 843 24.89 -0 32 95 -0.8 30.6
11:40 1014 29.94 843 24.89 -0 32 95 -0.7 30.7
11:45 1014 29.94 843 24.89 0.1 32.1 95 -0.6 30.9
11:50 1014 29.94 843 24.89 0.2 32.3 95 -0.6 30.9
11:55 1014 29.94 843 24.89 0.2 32.3 95 -0.6 30.9
12:00 1014 29.94 843 24.89 0.1 32.2 95 -0.6 30.9
12:05 1014 29.94 843 24.89 0 32.1 94 -0.8 30.5
12:10 1014 29.94 843 24.89 -0.2 31.7 94 -1 30.1
12:15 1014 29.94 843 24.89 -0.3 31.4 95 -1.1 30.1
12:20 1014 29.94 843 24.89 -0.3 31.5 95 -1 30.3
12:25 1014 29.94 843 24.89 -0.3 31.5 95 -1.1 30.1
12:30 1014 29.94 843 24.89 -0.6 30.9 92 -1.7 29
12:35 1014 29.94 843 24.89 -1.1 30 93 -2.1 28.3
12:40 1014 29.94 843 24.89 -1.1 30 93 -2.1 28.2
12:45 1014 29.94 843 24.89 -1.1 30.1 90 -2.6 27.4
12:50 1014 29.94 843 24.89 -0.9 30.4 88 -2.6 27.3
12:55 1014 29.94 843 24.89 -1.1 30.1 88 -2.9 26.9
13:00 1014 29.94 843 24.89 -1.3 29.7 87 -3.1 26.4
13:05 1014 29.94 843 24.89 -0.9 30.4 85 -3.1 26.5
13:10 1014 29.94 843 24.89 -0.7 30.7 82 -3.4 25.9
13:15 1014 29.94 843 24.89 -0.8 30.5 78 -4.1 24.6
13:20 1014 29.94 843 24.89 -1 30.2 76 -4.6 23.6
13:25 1014 29.94 843 24.89 -0.5 31.1 72 -4.8 23.3
13:30 1014 29.94 843 24.89 0.1 32.2 68 -5.1 22.9
13:35 1014 29.94 843 24.89 0.6 33 65 -5.3 22.4
13:40 1014 29.94 843 24.89 0.5 32.9 66 -5.1 22.9
13:45 1014 29.94 844 24.92 -0.1 31.9 70 -4.9 23.2
13:50 1014 29.94 844 24.92 -0.2 31.6 69 -5.2 22.7
13:55 1014 29.94 844 24.92 -0 32 66 -5.7 21.8
14:00 1014 29.94 844 24.92 0.3 32.6 62 -6.2 20.8
14:05 1014 29.94 844 24.92 0.5 32.9 59 -6.5 20.2
14:10 1014 29.94 844 24.92 0.7 33.3 55 -7.3 18.9
14:15 1014 29.94 844 24.92 0.8 33.5 56 -6.9 19.5
14:20 1015 29.97 844 24.92 0.8 33.5 54 -7.5 18.6
14:25 1015 29.97 844 24.92 0.8 33.4 56 -7.1 19.2
14:30 1015 29.97 844 24.92 0.8 33.4 55 -7.2 19.1
14:35 1015 29.97 844 24.92 0.9 33.7 54 -7.3 18.9
14:40 1015 29.97 844 24.92 1.1 33.9 53 -7.4 18.7
14:45 1015 29.97 844 24.92 1.5 34.7 52 -7.4 18.7
14:50 1015 29.97 844 24.92 2.1 35.7 50 -7.3 18.9
14:55 1015 29.97 844 24.92 2.1 35.8 50 -7.2 19.1
15:00 1015 29.97 844 24.92 2.3 36.1 50 -7.2 19.1
15:05 1015 29.97 844 24.92 1.6 34.8 48 -8.2 17.2
15:10 1015 29.97 844 24.92 1.3 34.3 50 -8 17.5
15:15 1015 29.97 844 24.92 1.3 34.3 49 -8.2 17.3
15:20 1015 29.97 844 24.92 1.4 34.5 47 -8.7 16.3
15:25 1015 29.97 845 24.95 1.2 34.1 47 -8.9 16
15:30 1015 29.97 845 24.95 1.2 34.2 48 -8.7 16.3
15:35 1015 29.97 845 24.95 1.3 34.3 47 -8.8 16.2
15:40 1016 30 845 24.95 1.2 34.2 48 -8.6 16.5
15:45 1016 30 845 24.95 1.1 34 47 -9.1 15.6
15:50 1016 30 845 24.95 0.9 33.6 48 -8.8 16.1
15:55 1016 30 845 24.95 0.9 33.6 47 -9.3 15.3
16:00 1016 30 845 24.95 1.1 33.9 49 -8.5 16.6
16:05 1016 30 845 24.95 0.6 33.1 50 -8.7 16.3
16:10 1016 30 845 24.95 0.4 32.7 48 -9.3 15.3
16:15 1016 30 845 24.95 0.5 32.9 48 -9.3 15.3
16:20 1016 30 845 24.95 0.4 32.6 50 -8.9 16
16:25 1016 30 846 24.98 0.1 32.2 50 -9.1 15.7
16:30 1016 30 846 24.98 -0.5 31.1 51 -9.4 15.1
16:35 1016 30 846 24.98 -0.5 31 49 -9.9 14.1
16:40 1016 30 846 24.98 -0.4 31.2 49 -9.8 14.4
16:45 1016 30 846 24.98 -0.6 30.9 50 -9.8 14.3
16:50 1017 30.03 846 24.98 -0.7 30.8 50 -10 14.1
16:55 1017 30.03 846 24.98 -0.5 31.1 52 -9.3 15.2
17:00 1017 30.03 846 24.98 -0.3 31.4 53 -8.8 16.1
17:05 1017 30.03 846 24.98 -0.4 31.3 51 -9.2 15.4
17:10 1017 30.03 846 24.98 -0.5 31.1 54 -8.8 16.2
17:15 1017 30.03 846 24.98 -0.5 31 51 -9.4 15.2
17:20 1017 30.03 846 24.98 -0 32 49 -9.4 15
17:25 1017 30.03 846 24.98 0.3 32.5 50 -9 15.9
17:30 1017 30.03 846 24.98 0.2 32.3 52 -8.7 16.4
17:35 1017 30.03 847 25.01 0.2 32.3 52 -8.5 16.7
17:40 1018 30.06 847 25.01 0.2 32.4 51 -8.7 16.4
17:45 1018 30.06 847 25.01 0.2 32.3 53 -8.4 16.9
17:50 1018 30.06 847 25.01 0.2 32.4 52 -8.6 16.6
17:55 1018 30.06 847 25.01 0.1 32.2 53 -8.3 17
18:00 1018 30.06 847 25.01 -0 32 54 -8.3 17
18:05 1017 30.03 847 25.01 -0.2 31.7 53 -8.6 16.5
18:10 1017 30.03 847 25.01 -0.3 31.4 55 -8.2 17.2
18:15 1017 30.03 847 25.01 -0.7 30.8 57 -8.1 17.4
18:20 1018 30.06 847 25.01 -1 30.2 59 -8 17.5
18:25 1018 30.06 847 25.01 -1.3 29.7 60 -8 17.6
18:30 1018 30.06 847 25.01 -1.5 29.2 61 -8 17.6
18:35 1018 30.06 847 25.01 -1.7 29 62 -8 17.7
18:40 1018 30.06 847 25.01 -1.8 28.8 63 -8 17.6
18:45 1018 30.06 847 25.01 -1.8 28.7 63 -8.1 17.5
18:50 1018 30.06 847 25.01 -2 28.4 60 -8.8 16.2
18:55 1018 30.06 847 25.01 -2.4 27.6 55 -10.4 13.3
19:00 1018 30.06 847 25.01 -2.4 27.8 50 -11.4 11.5
19:05 1018 30.06 847 25.01 -2 28.3 48 -11.6 11.1
19:10 1017 30.03 847 25.01 -1.7 29 48 -11.3 11.6
19:15 1017 30.03 847 25.01 -1.7 29 47 -11.5 11.3
19:20 1017 30.03 847 25.01 -1.8 28.7 47 -11.8 10.8
19:25 1017 30.03 847 25.01 -1.8 28.7 46 -11.9 10.6
19:30 1017 30.03 847 25.01 -1.7 28.9 46 -12 10.5
19:35 1017 30.03 847 25.01 -1.6 29.1 45 -12.1 10.1
19:40 1017 30.03 847 25.01 -1.5 29.3 46 -11.7 10.9
19:45 1017 30.03 847 25.01 -1.8 28.8 46 -12 10.3
19:50 1017 30.03 847 25.01 -2.4 27.7 45 -12.8 9
19:55 1017 30.03 847 25.01 -1.7 28.9 43 -12.8 8.9
20:00 1017 30.03 846 24.98 -1.4 29.4 42 -12.8 9
20:05 1017 30.03 846 24.98 -1.4 29.4 40 -13.3 8.1
20:10 1017 30.03 846 24.98 -1.1 30 40 -13.1 8.4
20:15 1017 30.03 846 24.98 -1.4 29.5 43 -12.5 9.5
20:20 1017 30.03 846 24.98 -1.9 28.6 44 -12.6 9.2
20:25 1017 30.03 847 25.01 -1.9 28.6 43 -12.8 8.9
20:30 1017 30.03 847 25.01 -1.7 29 43 -12.7 9.2
20:35 1017 30.03 847 25.01 -1.6 29.1 46 -11.9 10.6
20:40 1017 30.03 847 25.01 -2.3 27.8 53 -10.7 12.7
20:45 1017 30.03 847 25.01 -3.2 26.2 54 -11.3 11.6
20:50 1017 30.03 846 24.98 -3.3 26 51 -12.1 10.2
20:55 1017 30.03 846 24.98 -3 26.6 54 -11.1 12
21:00 1017 30.03 846 24.98 -3.2 26.2 49 -12.6 9.3
21:05 1017 30.03 846 24.98 -3.1 26.5 46 -13.2 8.2
21:10 1017 30.03 846 24.98 -2.8 26.9 45 -13.1 8.4
21:15 1017 30.03 846 24.98 -2.7 27.2 43 -13.5 7.6
21:20 1017 30.03 846 24.98 -2.7 27.1 43 -13.8 7.2
21:25 1017 30.03 846 24.98 -2.7 27.1 44 -13.4 7.8
21:30 1017 30.03 846 24.98 -2.9 26.8 44 -13.6 7.6
21:35 1017 30.03 846 24.98 -3.1 26.5 49 -12.4 9.7
21:40 1017 30.03 846 24.98 -3.9 24.9 54 -11.8 10.7
21:45 1017 30.03 846 24.98 -4.5 23.8 55 -12.2 10
21:50 1017 30.03 846 24.98 -4.6 23.8 55 -12.4 9.7
21:55 1017 30.03 846 24.98 -4.6 23.7 55 -12.2 10
22:00 1017 30.03 846 24.98 -4.6 23.8 53 -12.7 9.1
22:05 1017 30.03 846 24.98 -4.4 24.1 54 -12.4 9.7
22:10 1017 30.03 846 24.98 -4.8 23.4 54 -12.6 9.3
22:15 1017 30.03 846 24.98 -4.7 23.6 54 -12.7 9.2
22:20 1017 30.03 846 24.98 -4.5 23.9 54 -12.4 9.7
22:25 1017 30.03 846 24.98 -4.2 24.5 49 -13.3 8
22:30 1017 30.03 846 24.98 -3.7 25.4 49 -12.9 8.8
22:35 1017 30.03 846 24.98 -3.3 26.1 42 -14.5 6
22:40 1017 30.03 846 24.98 -2.6 27.3 45 -12.9 8.8
22:45 1017 30.03 846 24.98 -3.2 26.3 47 -13 8.6
22:50 1017 30.03 846 24.98 -3.6 25.4 49 -12.9 8.8
22:55 1017 30.03 846 24.98 -3.1 26.4 42 -14.3 6.2
23:00 1017 30.03 846 24.98 -2.7 27.1 39 -14.8 5.4
23:05 1017 30.03 846 24.98 -2.3 27.9 37 -15.2 4.6
23:10 1017 30.03 846 24.98 -1.8 28.8 34 -15.7 3.7
23:15 1017 30.03 846 24.98 -1.3 29.6 34 -15.4 4.4
23:20 1017 30.03 846 24.98 -1.1 30 32 -15.9 3.4
23:25 1016 30 846 24.98 -0.7 30.7 32 -15.3 4.5
23:30 1016 30 846 24.98 -0.3 31.5 33 -14.8 5.3
23:35 1016 30 846 24.98 -0.5 31.2 34 -14.5 5.9
23:40 1016 30 846 24.98 -0.6 30.9 33 -15.1 4.9
23:45 1016 30 846 24.98 -0.7 30.8 35 -14.5 5.9
23:50 1016 30 846 24.98 -0.6 30.9 32 -15.3 4.4
23:55 1016 30 846 24.98 -0.1 31.9 30 -15.7 3.8
24:00 1016 30 846 24.98 -0.1 31.9 31 -15.4 4.2